createdAt,value
2023-03-28T00:00:19.980Z,101091.59
2023-03-28T00:02:55.580Z,101102.91
2023-03-28T00:05:36.090Z,101105.69
2023-03-28T00:08:12.152Z,101114.25
2023-03-28T00:10:51.946Z,101114.94
2023-03-28T00:13:33.836Z,101124.56
2023-03-28T00:16:13.767Z,101131.94
2023-03-28T00:18:52.749Z,101135.13
2023-03-28T00:21:48.073Z,101141.63
2023-03-28T00:24:24.377Z,101131.53
2023-03-28T00:27:01.208Z,101139.59
2023-03-28T00:29:40.718Z,101143.59
2023-03-28T00:32:14.194Z,101145.59
2023-03-28T00:34:48.308Z,101148.06
2023-03-28T00:37:21.947Z,101139.25
2023-03-28T00:40:07.584Z,101157.72
2023-03-28T00:42:48.270Z,101161.75
2023-03-28T00:45:31.437Z,101161.81
2023-03-28T00:48:14.302Z,101162.63
2023-03-28T00:50:52.121Z,101175.44
2023-03-28T00:53:29.640Z,101171.44
2023-03-28T00:56:10.333Z,101172.69
2023-03-28T00:58:49.511Z,101172.97
2023-03-28T01:01:24.610Z,101181.78
2023-03-28T01:04:03.810Z,101185.81
2023-03-28T01:06:46.582Z,101183.81
2023-03-28T01:09:25.205Z,101201.19
2023-03-28T01:12:06.708Z,101198.06
2023-03-28T01:14:46.348Z,101196.44
2023-03-28T01:17:25.305Z,101201.84
2023-03-28T01:20:26.807Z,101197.28
2023-03-28T01:23:26.539Z,101204.13
2023-03-28T01:26:28.866Z,101211.09
2023-03-28T01:28:59.644Z,101211.94
2023-03-28T01:32:06.723Z,101223.28
2023-03-28T01:35:24.283Z,101217.22
2023-03-28T01:38:21.383Z,101234.94
2023-03-28T01:40:59.552Z,101230.41
2023-03-28T01:43:55.067Z,101227.34
2023-03-28T01:46:59.304Z,101226.78
2023-03-28T01:50:06.652Z,101223.06
2023-03-28T01:53:06.998Z,101231.91
2023-03-28T01:56:01.910Z,101232.78
2023-03-28T01:58:49.774Z,101222.75
2023-03-28T02:02:10.834Z,101236.44
2023-03-28T02:04:45.435Z,101238.13
2023-03-28T02:07:22.071Z,101240.88
2023-03-28T02:10:19.730Z,101242.97
2023-03-28T02:13:11.325Z,101246.19
2023-03-28T02:16:05.604Z,101246.28
2023-03-28T02:18:56.916Z,101255.47
2023-03-28T02:22:01.401Z,101259.16
2023-03-28T02:24:50.516Z,101254.31
2023-03-28T02:28:09.226Z,101257.78
2023-03-28T02:31:17.050Z,101261.47
2023-03-28T02:33:51.370Z,101251.44
2023-03-28T02:36:44.403Z,101251.44
2023-03-28T02:39:36.257Z,101250.19
2023-03-28T02:42:31.424Z,101264.78
2023-03-28T02:45:38.250Z,101263.97
2023-03-28T02:48:49.842Z,101261.91
2023-03-28T02:51:37.442Z,101273.44
2023-03-28T02:54:36.225Z,101272.44
2023-03-28T02:57:52.724Z,101283.91
2023-03-28T03:00:32.575Z,101275.94
2023-03-28T03:03:09.061Z,101271.13
2023-03-28T03:05:45.266Z,101273.09
2023-03-28T03:08:18.082Z,101276.31
2023-03-28T03:10:51.225Z,101266.09
2023-03-28T03:13:27.748Z,101279.38
2023-03-28T03:16:06.707Z,101273.97
2023-03-28T03:18:42.883Z,101277.53
2023-03-28T03:21:23.828Z,101285.88
2023-03-28T03:24:02.931Z,101287.84
2023-03-28T03:26:38.799Z,101281.44
2023-03-28T03:29:21.087Z,101289.66
2023-03-28T03:31:57.755Z,101289.66
2023-03-28T03:35:01.057Z,101294.53
2023-03-28T03:37:34.319Z,101301.41
2023-03-28T03:40:02.333Z,101303.78
2023-03-28T03:42:45.249Z,101296.91
2023-03-28T03:45:23.705Z,101298.72
2023-03-28T03:48:02.731Z,101292.84
2023-03-28T03:50:33.666Z,101292.03
2023-03-28T03:53:05.041Z,101294.28
2023-03-28T03:55:47.740Z,101303.69
2023-03-28T03:58:26.885Z,101305.72
2023-03-28T04:01:02.097Z,101314.19
2023-03-28T04:03:45.332Z,101317.38
2023-03-28T04:06:29.244Z,101315.03
2023-03-28T04:09:04.773Z,101316.59
2023-03-28T04:12:00.340Z,101319.88
2023-03-28T04:14:36.654Z,101318.25
2023-03-28T04:17:35.913Z,101324.72
2023-03-28T04:20:19.611Z,101323.97
2023-03-28T04:23:13.183Z,101332.00
2023-03-28T04:25:49.515Z,101331.19
2023-03-28T04:28:34.936Z,101324.72
2023-03-28T04:31:12.478Z,101328.16
2023-03-28T04:34:01.343Z,101331.66
2023-03-28T04:36:44.938Z,101346.00
2023-03-28T04:39:22.010Z,101348.00
2023-03-28T04:42:12.772Z,101340.78
2023-03-28T04:45:10.697Z,101339.59
2023-03-28T04:47:44.133Z,101343.53
2023-03-28T04:50:30.508Z,101333.97
2023-03-28T04:53:09.350Z,101336.84
2023-03-28T04:55:54.062Z,101345.16
2023-03-28T04:58:31.859Z,101348.50
2023-03-28T05:01:05.702Z,101348.53
2023-03-28T05:04:11.585Z,101347.69
2023-03-28T05:06:52.108Z,101349.34
2023-03-28T05:09:26.498Z,101364.50
2023-03-28T05:12:06.113Z,101360.56
2023-03-28T05:14:57.162Z,101363.88
2023-03-28T05:17:32.084Z,101359.78
2023-03-28T05:20:29.108Z,101369.88
2023-03-28T05:23:15.593Z,101358.56
2023-03-28T05:26:04.541Z,101367.47
2023-03-28T05:28:45.727Z,101369.13
2023-03-28T05:31:17.553Z,101368.88
2023-03-28T05:33:52.922Z,101376.94
2023-03-28T05:36:41.128Z,101383.88
2023-03-28T05:39:30.849Z,101384.16
2023-03-28T05:42:03.114Z,101383.41
2023-03-28T05:44:34.937Z,101386.69
2023-03-28T05:50:10.992Z,101407.75
2023-03-28T05:52:41.858Z,101406.41
2023-03-28T05:55:16.643Z,101406.25
2023-03-28T05:57:50.962Z,101419.63
2023-03-28T06:00:23.627Z,101416.84
2023-03-28T06:03:00.257Z,101418.16
2023-03-28T06:05:34.192Z,101400.34
2023-03-28T06:08:09.450Z,101423.06
2023-03-28T06:10:46.780Z,101423.97
2023-03-28T06:13:39.494Z,101432.91
2023-03-28T06:16:15.018Z,101426.38
2023-03-28T06:18:48.661Z,101435.34
2023-03-28T06:21:22.315Z,101437.41
2023-03-28T06:23:49.957Z,101434.78
2023-03-28T06:26:27.174Z,101433.63
2023-03-28T06:29:01.432Z,101438.13
2023-03-28T06:31:50.573Z,101452.34
2023-03-28T06:34:22.037Z,101449.34
2023-03-28T06:37:02.018Z,101453.91
2023-03-28T06:40:14.154Z,101457.94
2023-03-28T06:42:44.969Z,101466.16
2023-03-28T06:45:41.097Z,101468.69
2023-03-28T06:48:17.141Z,101470.41
2023-03-28T06:51:13.450Z,101475.34
2023-03-28T06:53:48.144Z,101482.72
2023-03-28T06:56:24.690Z,101476.78
2023-03-28T06:58:53.227Z,101478.19
2023-03-28T07:01:27.776Z,101482.66
2023-03-28T07:04:08.878Z,101481.94
2023-03-28T07:06:46.571Z,101496.50
2023-03-28T07:09:17.863Z,101501.63
2023-03-28T07:11:55.405Z,101508.81
2023-03-28T07:14:29.443Z,101509.50
2023-03-28T07:17:00.249Z,101519.03
2023-03-28T07:19:33.858Z,101518.41
2023-03-28T07:22:06.041Z,101529.69
2023-03-28T07:24:49.184Z,101530.19
2023-03-28T07:27:28.798Z,101530.69
2023-03-28T07:30:05.423Z,101529.47
2023-03-28T07:32:50.367Z,101535.16
2023-03-28T07:35:26.111Z,101542.84
2023-03-28T07:37:59.760Z,101547.28
2023-03-28T07:40:37.137Z,101551.88
2023-03-28T07:43:10.282Z,101554.31
2023-03-28T07:45:41.275Z,101556.69
2023-03-28T07:48:14.809Z,101553.47
2023-03-28T07:50:48.147Z,101568.38
2023-03-28T07:53:20.172Z,101565.88
2023-03-28T07:55:54.894Z,101568.47
2023-03-28T07:58:31.534Z,101571.09
2023-03-28T08:01:21.162Z,101572.84
2023-03-28T08:03:57.503Z,101580.97
2023-03-28T08:06:37.649Z,101583.19
2023-03-28T08:09:10.290Z,101593.94
2023-03-28T08:11:47.986Z,101586.31
2023-03-28T08:14:18.551Z,101583.81
2023-03-28T08:16:47.059Z,101587.00
2023-03-28T08:19:18.265Z,101594.44
2023-03-28T08:22:21.786Z,101595.50
2023-03-28T08:25:17.473Z,101595.31
2023-03-28T08:27:50.848Z,101595.06
2023-03-28T08:30:30.453Z,101598.75
2023-03-28T08:33:08.473Z,101590.06
2023-03-28T08:35:46.019Z,101597.00
2023-03-28T08:38:22.908Z,101606.91
2023-03-28T08:41:06.093Z,101598.78
2023-03-28T08:44:09.075Z,101604.94
2023-03-28T08:46:45.563Z,101598.69
2023-03-28T08:49:22.618Z,101603.28
2023-03-28T08:52:05.575Z,101614.28
2023-03-28T08:54:51.997Z,101603.69
2023-03-28T08:57:28.161Z,101600.03
2023-03-28T09:00:22.677Z,101606.56
2023-03-28T09:02:56.288Z,101602.88
2023-03-28T09:05:49.896Z,101597.19
2023-03-28T09:08:46.088Z,101599.22
2023-03-28T09:11:28.177Z,101596.81
2023-03-28T09:14:38.141Z,101598.03
2023-03-28T09:17:15.133Z,101597.66
2023-03-28T09:20:14.114Z,101597.22
2023-03-28T09:23:13.120Z,101594.34
2023-03-28T09:26:18.105Z,101591.94
2023-03-28T09:28:56.357Z,101595.16
2023-03-28T09:31:36.861Z,101598.88
2023-03-28T09:34:07.305Z,101598.84
2023-03-28T09:36:49.665Z,101594.81
2023-03-28T09:39:37.299Z,101600.88
2023-03-28T09:42:32.487Z,101596.44
2023-03-28T09:45:53.762Z,101603.75
2023-03-28T09:49:01.356Z,101611.06
2023-03-28T09:51:40.425Z,101607.81
2023-03-28T09:54:15.909Z,101608.19
2023-03-28T09:56:52.255Z,101616.72
2023-03-28T09:59:38.856Z,101607.81
2023-03-28T10:02:39.894Z,101611.47
2023-03-28T10:05:37.432Z,101611.84
2023-03-28T10:08:28.844Z,101610.22
2023-03-28T10:11:27.355Z,101611.06
2023-03-28T10:14:06.245Z,101607.38
2023-03-28T10:16:43.842Z,101600.47
2023-03-28T10:19:34.643Z,101598.06
2023-03-28T10:22:51.998Z,101597.63
2023-03-28T10:25:39.376Z,101590.72
2023-03-28T10:28:13.607Z,101589.06
2023-03-28T10:30:48.287Z,101596.41
2023-03-28T10:33:22.094Z,101602.91
2023-03-28T10:36:24.061Z,101602.91
2023-03-28T10:39:00.559Z,101601.22
2023-03-28T10:42:01.015Z,101601.00
2023-03-28T10:45:03.101Z,101600.00
2023-03-28T10:47:35.421Z,101605.63
2023-03-28T10:50:37.906Z,101599.97
2023-03-28T10:53:47.881Z,101603.13
2023-03-28T10:56:41.635Z,101605.91
2023-03-28T10:59:47.479Z,101603.88
2023-03-28T11:02:42.869Z,101604.66
2023-03-28T11:06:01.802Z,101592.44
2023-03-28T11:08:58.868Z,101597.63
2023-03-28T11:11:45.386Z,101593.47
2023-03-28T11:14:33.190Z,101590.66
2023-03-28T11:17:22.693Z,101584.16
2023-03-28T11:20:17.760Z,101599.50
2023-03-28T11:23:15.619Z,101595.38
2023-03-28T11:26:18.356Z,101594.09
2023-03-28T11:30:00.998Z,101589.56
2023-03-28T11:32:51.328Z,101582.22
2023-03-28T11:35:39.384Z,101585.00
2023-03-28T11:38:25.310Z,101581.84
2023-03-28T11:41:17.464Z,101570.97
2023-03-28T11:44:19.264Z,101567.09
2023-03-28T11:47:01.736Z,101575.78
2023-03-28T11:50:00.506Z,101573.03
2023-03-28T11:53:24.467Z,101573.28
2023-03-28T11:56:15.759Z,101565.56
2023-03-28T11:59:11.729Z,101565.94
2023-03-28T12:01:49.440Z,101560.47
2023-03-28T12:04:37.728Z,101566.09
2023-03-28T12:07:31.762Z,101556.31
2023-03-28T12:10:17.923Z,101559.03
2023-03-28T12:12:51.904Z,101555.09
2023-03-28T12:15:25.174Z,101547.69
2023-03-28T12:18:13.224Z,101555.56
2023-03-28T12:21:11.176Z,101540.19
2023-03-28T12:24:04.057Z,101550.25
2023-03-28T12:27:12.612Z,101537.44
2023-03-28T12:29:56.797Z,101528.13
2023-03-28T12:32:45.368Z,101529.31
2023-03-28T12:35:42.260Z,101524.09
2023-03-28T12:38:48.432Z,101530.25
2023-03-28T12:41:39.144Z,101522.59
2023-03-28T12:44:24.861Z,101520.59
2023-03-28T12:47:21.159Z,101518.22
2023-03-28T12:49:59.906Z,101517.03
2023-03-28T12:52:42.233Z,101512.53
2023-03-28T12:55:25.722Z,101506.25
2023-03-28T12:58:28.456Z,101510.03
2023-03-28T13:01:12.234Z,101505.66
2023-03-28T13:04:27.369Z,101508.13
2023-03-28T13:07:56.351Z,101509.72
2023-03-28T13:10:45.586Z,101506.91
2023-03-28T13:13:44.399Z,101505.13
2023-03-28T13:16:47.664Z,101501.63
2023-03-28T13:19:24.767Z,101497.59
2023-03-28T13:22:04.081Z,101502.00
2023-03-28T13:24:41.187Z,101502.84
2023-03-28T13:27:32.908Z,101496.47
2023-03-28T13:30:09.852Z,101502.75
2023-03-28T13:33:00.545Z,101496.28
2023-03-28T13:35:43.001Z,101501.22
2023-03-28T13:39:00.077Z,101499.22
2023-03-28T13:41:39.549Z,101490.31
2023-03-28T13:44:20.048Z,101487.84
2023-03-28T13:47:03.021Z,101477.03
2023-03-28T13:49:36.539Z,101477.59
2023-03-28T13:52:13.173Z,101479.06
2023-03-28T13:54:47.809Z,101474.41
2023-03-28T13:57:30.950Z,101475.69
2023-03-28T14:00:14.313Z,101473.66
2023-03-28T14:02:54.914Z,101476.09
2023-03-28T14:05:36.959Z,101477.72
2023-03-28T14:08:17.163Z,101468.13
2023-03-28T14:10:55.594Z,101471.94
2023-03-28T14:13:35.667Z,101466.75
2023-03-28T14:16:10.592Z,101467.06
2023-03-28T14:18:50.211Z,101462.28
2023-03-28T14:21:21.866Z,101465.56
2023-03-28T14:23:59.542Z,101459.44
2023-03-28T14:26:34.475Z,101461.44
2023-03-28T14:29:14.115Z,101463.03
2023-03-28T14:31:54.357Z,101451.28
2023-03-28T14:34:34.981Z,101451.66
2023-03-28T14:37:21.606Z,101452.09
2023-03-28T14:39:54.511Z,101452.88
2023-03-28T14:42:24.433Z,101449.97
2023-03-28T14:44:57.919Z,101447.56
2023-03-28T14:47:35.404Z,101451.63
2023-03-28T14:50:08.482Z,101441.00
2023-03-28T14:52:41.324Z,101446.75
2023-03-28T14:55:16.826Z,101450.78
2023-03-28T14:57:52.723Z,101453.22
2023-03-28T15:00:44.455Z,101440.63
2023-03-28T15:03:20.313Z,101447.88
2023-03-28T15:05:58.790Z,101434.13
2023-03-28T15:08:34.625Z,101430.44
2023-03-28T15:11:31.113Z,101433.59
2023-03-28T15:14:22.035Z,101430.44
2023-03-28T15:16:50.224Z,101431.22
2023-03-28T15:19:32.787Z,101428.38
2023-03-28T15:22:17.435Z,101423.50
2023-03-28T15:24:45.572Z,101425.44
2023-03-28T15:27:44.306Z,101433.16
2023-03-28T15:30:21.476Z,101424.72
2023-03-28T15:33:00.894Z,101429.66
2023-03-28T15:35:43.978Z,101441.41
2023-03-28T15:38:26.090Z,101441.75
2023-03-28T15:41:33.728Z,101436.00
2023-03-28T15:44:33.962Z,101442.44
2023-03-28T15:47:13.342Z,101444.00
2023-03-28T15:49:52.753Z,101439.53
2023-03-28T15:52:36.106Z,101446.34
2023-03-28T15:55:06.510Z,101443.66
2023-03-28T15:57:42.778Z,101451.09
2023-03-28T16:00:38.393Z,101450.78
2023-03-28T16:03:26.894Z,101441.84
2023-03-28T16:06:11.958Z,101455.75
2023-03-28T16:08:57.848Z,101463.34
2023-03-28T16:11:30.475Z,101458.31
2023-03-28T16:14:20.928Z,101460.78
2023-03-28T16:17:07.735Z,101452.09
2023-03-28T16:19:54.388Z,101459.94
2023-03-28T16:22:23.841Z,101460.22
2023-03-28T16:24:55.140Z,101458.13
2023-03-28T16:27:25.510Z,101460.88
2023-03-28T16:30:02.560Z,101468.78
2023-03-28T16:32:30.882Z,101471.13
2023-03-28T16:35:06.441Z,101466.53
2023-03-28T16:37:39.249Z,101462.91
2023-03-28T16:40:13.334Z,101459.69
2023-03-28T16:42:46.522Z,101455.66
2023-03-28T16:45:20.623Z,101463.41
2023-03-28T16:47:48.587Z,101469.84
2023-03-28T16:50:18.804Z,101468.91
2023-03-28T16:52:51.596Z,101469.41
2023-03-28T16:55:22.349Z,101473.03
2023-03-28T16:57:55.472Z,101480.34
2023-03-28T17:00:34.603Z,101477.91
2023-03-28T17:03:02.639Z,101482.34
2023-03-28T17:05:35.804Z,101482.78
2023-03-28T17:08:09.309Z,101477.91
2023-03-28T17:10:40.889Z,101481.56
2023-03-28T17:13:15.661Z,101479.50
2023-03-28T17:15:46.674Z,101479.94
2023-03-28T17:18:18.086Z,101475.47
2023-03-28T17:20:49.198Z,101485.59
2023-03-28T17:23:17.052Z,101482.75
2023-03-28T17:25:54.687Z,101481.97
2023-03-28T17:28:27.202Z,101484.34
2023-03-28T17:30:55.093Z,101484.84
2023-03-28T17:33:31.326Z,101480.41
2023-03-28T17:36:02.267Z,101485.56
2023-03-28T17:38:33.963Z,101479.84
2023-03-28T17:41:02.385Z,101486.34
2023-03-28T17:43:30.850Z,101485.88
2023-03-28T17:45:58.291Z,101486.03
2023-03-28T17:48:28.440Z,101480.25
2023-03-28T17:50:58.992Z,101487.88
2023-03-28T17:53:29.953Z,101503.31
2023-03-28T17:56:03.139Z,101505.34
2023-03-28T17:58:32.651Z,101510.88
2023-03-28T18:01:03.167Z,101515.78
2023-03-28T18:03:33.599Z,101515.78
2023-03-28T18:06:17.641Z,101511.34
2023-03-28T18:08:45.585Z,101516.66
2023-03-28T18:11:18.464Z,101521.41
2023-03-28T18:13:50.210Z,101528.19
2023-03-28T18:16:21.241Z,101526.13
2023-03-28T18:18:54.267Z,101539.03
2023-03-28T18:21:28.395Z,101534.75
2023-03-28T18:23:59.161Z,101536.25
2023-03-28T18:26:29.279Z,101545.47
2023-03-28T18:28:59.349Z,101553.53
2023-03-28T18:31:30.339Z,101553.59
2023-03-28T18:34:05.395Z,101557.19
2023-03-28T18:36:33.388Z,101559.56
2023-03-28T18:39:06.349Z,101560.03
2023-03-28T18:41:36.602Z,101563.25
2023-03-28T18:44:08.770Z,101573.38
2023-03-28T18:46:40.471Z,101568.03
2023-03-28T18:49:11.271Z,101580.56
2023-03-28T18:51:39.710Z,101583.00
2023-03-28T18:54:11.996Z,101580.56
2023-03-28T18:56:42.215Z,101579.34
2023-03-28T18:59:11.248Z,101580.91
2023-03-28T19:01:44.978Z,101583.38
2023-03-28T19:04:14.117Z,101588.16
2023-03-28T19:06:45.703Z,101588.16
2023-03-28T19:09:18.629Z,101582.50
2023-03-28T19:11:56.307Z,101595.47
2023-03-28T19:14:24.356Z,101594.34
2023-03-28T19:16:54.981Z,101597.13
2023-03-28T19:19:26.304Z,101594.97
2023-03-28T19:21:59.158Z,101597.41
2023-03-28T19:24:28.456Z,101601.13
2023-03-28T19:27:00.026Z,101601.09
2023-03-28T19:29:32.132Z,101599.13
2023-03-28T19:32:00.020Z,101597.09
2023-03-28T19:34:28.257Z,101599.06
2023-03-28T19:36:59.266Z,101613.59
2023-03-28T19:39:29.947Z,101609.06
2023-03-28T19:42:02.939Z,101611.50
2023-03-28T19:44:31.695Z,101609.88
2023-03-28T19:47:01.460Z,101611.56
2023-03-28T19:49:29.668Z,101604.22
2023-03-28T19:51:59.363Z,101606.19
2023-03-28T19:54:30.487Z,101608.22
2023-03-28T19:57:01.282Z,101606.84
2023-03-28T19:59:35.161Z,101609.63
2023-03-28T20:02:03.315Z,101610.75
2023-03-28T20:04:33.527Z,101617.63
2023-03-28T20:07:04.617Z,101612.47
2023-03-28T20:09:35.760Z,101616.75
2023-03-28T20:12:10.115Z,101618.44
2023-03-28T20:14:38.013Z,101614.34
2023-03-28T20:17:10.294Z,101619.25
2023-03-28T20:19:38.878Z,101612.38
2023-03-28T20:22:09.371Z,101613.94
2023-03-28T20:24:37.565Z,101610.25
2023-03-28T20:27:08.078Z,101613.09
2023-03-28T20:29:39.688Z,101618.78
2023-03-28T20:32:10.466Z,101629.59
2023-03-28T20:34:41.639Z,101623.94
2023-03-28T20:37:09.572Z,101627.06
2023-03-28T20:39:40.500Z,101620.66
2023-03-28T20:42:09.198Z,101621.03
2023-03-28T20:44:41.959Z,101626.00
2023-03-28T20:47:22.235Z,101630.34
2023-03-28T20:49:56.947Z,101627.13
2023-03-28T20:52:27.834Z,101627.56
2023-03-28T20:54:59.691Z,101619.38
2023-03-28T20:57:30.695Z,101619.84
2023-03-28T21:00:02.059Z,101620.59
2023-03-28T21:02:36.427Z,101619.03
2023-03-28T21:05:05.981Z,101619.38
2023-03-28T21:07:35.025Z,101616.19
2023-03-28T21:10:10.097Z,101611.72
2023-03-28T21:12:40.805Z,101619.03
2023-03-28T21:15:09.300Z,101617.06
2023-03-28T21:17:40.645Z,101624.69
2023-03-28T21:20:13.791Z,101630.50
2023-03-28T21:22:46.467Z,101641.44
2023-03-28T21:25:14.322Z,101652.31
2023-03-28T21:27:42.329Z,101651.47
2023-03-28T21:30:14.456Z,101650.25
2023-03-28T21:32:47.890Z,101645.81
2023-03-28T21:35:15.826Z,101634.09
2023-03-28T21:37:47.233Z,101623.28
2023-03-28T21:40:16.186Z,101631.22
2023-03-28T21:42:44.206Z,101626.38
2023-03-28T21:45:13.238Z,101624.75
2023-03-28T21:47:51.057Z,101615.91
2023-03-28T21:50:32.438Z,101617.31
2023-03-28T21:53:00.908Z,101627.72
2023-03-28T21:55:33.231Z,101626.63
2023-03-28T21:58:01.324Z,101630.91
2023-03-28T22:00:31.533Z,101634.84
2023-03-28T22:02:59.705Z,101625.91
2023-03-28T22:05:30.359Z,101626.72
2023-03-28T22:08:01.900Z,101628.88
2023-03-28T22:10:31.278Z,101623.13
2023-03-28T22:12:59.497Z,101631.25
2023-03-28T22:15:34.187Z,101622.31
2023-03-28T22:18:09.473Z,101638.41
2023-03-28T22:20:43.697Z,101644.94
2023-03-28T22:23:16.635Z,101648.91
2023-03-28T22:25:47.238Z,101651.22
2023-03-28T22:28:24.532Z,101646.91
2023-03-28T22:30:58.794Z,101644.00
2023-03-28T22:33:26.826Z,101647.13
2023-03-28T22:36:01.342Z,101644.31
2023-03-28T22:38:29.396Z,101643.13
2023-03-28T22:40:58.618Z,101636.34
2023-03-28T22:43:30.241Z,101641.25
2023-03-28T22:46:03.275Z,101650.03
2023-03-28T22:48:31.770Z,101647.59
2023-03-28T22:51:04.223Z,101646.25
2023-03-28T22:53:34.305Z,101659.25
2023-03-28T22:56:05.897Z,101654.06
2023-03-28T22:58:38.283Z,101645.13
2023-03-28T23:01:11.924Z,101635.88
2023-03-28T23:03:39.803Z,101639.47
2023-03-28T23:06:08.291Z,101649.16
2023-03-28T23:08:37.729Z,101656.06
2023-03-28T23:11:06.969Z,101656.13
2023-03-28T23:13:37.748Z,101659.41
2023-03-28T23:16:09.197Z,101660.53
2023-03-28T23:18:38.612Z,101661.41
2023-03-28T23:21:09.748Z,101648.84
2023-03-28T23:23:37.795Z,101639.09
2023-03-28T23:26:06.575Z,101638.72
2023-03-28T23:28:35.048Z,101645.28
2023-03-28T23:31:03.083Z,101642.06
2023-03-28T23:33:31.683Z,101649.16
2023-03-28T23:36:01.078Z,101651.22
2023-03-28T23:38:36.737Z,101666.16
2023-03-28T23:41:08.484Z,101658.16
2023-03-28T23:43:37.392Z,101653.25
2023-03-28T23:46:09.098Z,101645.81
2023-03-28T23:48:38.302Z,101650.41
2023-03-28T23:51:09.214Z,101654.75
2023-03-28T23:53:37.281Z,101646.19
2023-03-28T23:56:05.811Z,101650.66
2023-03-28T23:58:34.394Z,101658.03
